createdAt,value
2018-03-22T00:02:22.472Z,10.33
2018-03-22T00:04:49.947Z,8.57
2018-03-22T00:07:17.410Z,10.07
2018-03-22T00:09:44.903Z,9.73
2018-03-22T00:12:12.358Z,9.63
2018-03-22T00:14:39.819Z,9.20
2018-03-22T00:17:07.306Z,10.50
2018-03-22T00:19:34.766Z,9.80
2018-03-22T00:22:02.278Z,10.23
2018-03-22T00:24:29.749Z,9.67
2018-03-22T00:26:57.210Z,8.40
2018-03-22T00:29:24.692Z,9.83
2018-03-22T00:31:52.150Z,10.57
2018-03-22T00:34:19.778Z,9.10
2018-03-22T00:36:47.245Z,9.53
2018-03-22T00:39:14.745Z,10.60
2018-03-22T00:41:42.181Z,9.20
2018-03-22T00:44:09.629Z,8.90
2018-03-22T00:46:37.102Z,9.30
2018-03-22T00:49:04.553Z,8.17
2018-03-22T00:51:32.022Z,9.90
2018-03-22T00:53:59.490Z,9.07
2018-03-22T00:56:26.941Z,8.03
2018-03-22T00:58:54.421Z,9.03
2018-03-22T01:01:21.876Z,8.70
2018-03-22T01:03:49.349Z,8.80
2018-03-22T01:06:16.817Z,8.73
2018-03-22T01:08:44.294Z,9.87
2018-03-22T01:11:12.135Z,9.87
2018-03-22T01:13:39.582Z,9.27
2018-03-22T01:16:07.029Z,8.90
2018-03-22T01:18:34.501Z,8.60
2018-03-22T01:21:01.950Z,9.57
2018-03-22T01:23:29.597Z,8.47
2018-03-22T01:25:57.041Z,9.57
2018-03-22T01:28:24.489Z,8.17
2018-03-22T01:30:51.965Z,9.60
2018-03-22T01:33:19.423Z,9.90
2018-03-22T01:35:46.942Z,9.60
2018-03-22T01:38:14.389Z,9.00
2018-03-22T01:40:41.859Z,8.87
2018-03-22T01:43:09.341Z,10.00
2018-03-22T01:45:36.813Z,8.10
2018-03-22T01:48:04.301Z,8.53
2018-03-22T01:50:31.749Z,9.17
2018-03-22T01:53:11.097Z,8.50
2018-03-22T01:55:38.557Z,10.20
2018-03-22T01:58:06.341Z,8.40
2018-03-22T02:00:33.801Z,8.77
2018-03-22T02:03:01.253Z,8.43
2018-03-22T02:05:28.732Z,10.53
2018-03-22T02:07:56.182Z,8.83
2018-03-22T02:10:23.908Z,8.33
2018-03-22T02:12:51.356Z,8.20
2018-03-22T02:15:18.817Z,9.37
2018-03-22T02:17:46.285Z,8.73
2018-03-22T02:20:13.736Z,9.47
2018-03-22T02:22:41.239Z,8.23
2018-03-22T02:25:08.695Z,9.17
2018-03-22T02:27:36.150Z,9.03
2018-03-22T02:30:03.619Z,9.27
2018-03-22T02:32:31.104Z,8.20
2018-03-22T02:34:58.581Z,8.47
2018-03-22T02:37:26.065Z,8.63
2018-03-22T02:39:53.517Z,8.00
2018-03-22T02:42:21.009Z,8.27
2018-03-22T02:44:48.461Z,9.60
2018-03-22T02:47:15.958Z,10.23
2018-03-22T02:49:43.430Z,9.20
2018-03-22T02:52:10.886Z,9.50
2018-03-22T02:54:38.362Z,9.13
2018-03-22T02:57:05.834Z,9.77
2018-03-22T02:59:33.286Z,9.23
2018-03-22T03:02:00.790Z,9.00
2018-03-22T03:04:28.241Z,9.23
2018-03-22T03:06:55.695Z,8.80
2018-03-22T03:09:23.170Z,9.73
2018-03-22T03:11:50.653Z,9.13
2018-03-22T03:14:18.098Z,8.67
2018-03-22T03:16:45.577Z,11.20
2018-03-22T03:19:13.033Z,8.53
2018-03-22T03:21:40.479Z,8.90
2018-03-22T03:24:08.070Z,8.30
2018-03-22T03:26:35.525Z,10.27
2018-03-22T03:29:02.965Z,9.00
2018-03-22T03:31:30.430Z,8.90
2018-03-22T03:33:57.881Z,10.03
2018-03-22T03:36:25.327Z,10.20
2018-03-22T03:38:52.790Z,9.87
2018-03-22T03:41:20.293Z,10.23
2018-03-22T03:43:47.714Z,8.67
2018-03-22T03:46:15.176Z,9.20
2018-03-22T03:48:42.625Z,10.47
2018-03-22T03:51:10.111Z,9.80
2018-03-22T03:53:37.625Z,10.67
2018-03-22T03:56:05.074Z,10.07
2018-03-22T03:58:32.535Z,8.87
2018-03-22T04:01:00.017Z,11.17
2018-03-22T04:03:27.469Z,9.87
2018-03-22T04:05:54.917Z,10.13
2018-03-22T04:08:22.398Z,11.13
2018-03-22T04:10:49.860Z,11.97
2018-03-22T04:13:17.313Z,11.70
2018-03-22T04:15:44.781Z,10.27
2018-03-22T04:18:12.232Z,10.83
2018-03-22T04:20:39.680Z,10.30
2018-03-22T04:23:07.158Z,10.83
2018-03-22T04:25:34.610Z,11.53
2018-03-22T04:28:02.073Z,10.43
2018-03-22T04:30:29.577Z,11.67
2018-03-22T04:32:57.021Z,11.33
2018-03-22T04:35:24.471Z,11.87
2018-03-22T04:37:51.958Z,12.23
2018-03-22T04:40:19.412Z,11.63
2018-03-22T04:42:46.866Z,10.60
2018-03-22T04:45:14.374Z,10.27
2018-03-22T04:47:41.818Z,9.67
2018-03-22T04:50:09.265Z,12.00
2018-03-22T04:52:36.902Z,11.00
2018-03-22T04:55:04.373Z,13.10
2018-03-22T04:57:31.818Z,10.83
2018-03-22T04:59:59.418Z,11.90
2018-03-22T05:02:26.869Z,11.73
2018-03-22T05:04:54.317Z,11.00
2018-03-22T05:07:22.065Z,10.40
2018-03-22T05:09:49.517Z,11.30
2018-03-22T05:12:16.977Z,11.07
2018-03-22T05:14:44.841Z,10.27
2018-03-22T05:17:12.298Z,12.10
2018-03-22T05:19:39.752Z,10.90
2018-03-22T05:22:07.234Z,11.27
2018-03-22T05:24:34.689Z,10.70
2018-03-22T05:27:02.163Z,11.90
2018-03-22T05:29:29.760Z,10.27
2018-03-22T05:31:57.253Z,11.53
2018-03-22T05:34:24.701Z,11.17
2018-03-22T05:36:52.275Z,11.90
2018-03-22T05:39:19.726Z,10.83
2018-03-22T05:41:47.173Z,12.10
2018-03-22T05:44:14.793Z,10.90
2018-03-22T05:46:42.241Z,11.43
2018-03-22T05:49:09.690Z,11.37
2018-03-22T05:51:37.199Z,12.40
2018-03-22T05:54:04.649Z,11.30
2018-03-22T05:56:32.130Z,10.43
2018-03-22T05:58:59.621Z,11.37
2018-03-22T06:01:27.091Z,11.77
2018-03-22T06:03:54.549Z,11.33
2018-03-22T06:06:22.354Z,10.60
2018-03-22T06:08:49.820Z,10.47
2018-03-22T06:11:17.278Z,10.50
2018-03-22T06:13:44.765Z,10.27
2018-03-22T06:16:12.211Z,9.80
2018-03-22T06:18:39.661Z,10.77
2018-03-22T06:21:07.149Z,10.13
2018-03-22T06:23:34.603Z,9.83
2018-03-22T06:26:02.041Z,9.73
2018-03-22T06:28:29.757Z,9.17
2018-03-22T06:30:57.206Z,8.97
2018-03-22T06:33:24.657Z,8.00
2018-03-22T06:35:52.257Z,7.10
2018-03-22T06:38:19.702Z,7.97
2018-03-22T06:40:47.161Z,6.80
2018-03-22T06:43:14.834Z,8.53
2018-03-22T06:45:42.274Z,7.13
2018-03-22T06:48:09.718Z,7.37
2018-03-22T06:50:37.186Z,7.00
2018-03-22T06:53:04.641Z,6.93
2018-03-22T06:55:32.117Z,6.43
2018-03-22T06:57:59.558Z,6.80
2018-03-22T07:00:26.993Z,7.60
2018-03-22T07:02:54.464Z,7.60
2018-03-22T07:05:21.913Z,7.67
2018-03-22T07:07:49.488Z,7.00
2018-03-22T07:10:16.949Z,6.70
2018-03-22T07:12:44.404Z,7.77
2018-03-22T07:15:11.881Z,7.97
2018-03-22T07:17:39.337Z,8.30
2018-03-22T07:20:06.814Z,8.53
2018-03-22T07:22:34.281Z,9.40
2018-03-22T07:25:01.726Z,10.33
2018-03-22T07:27:29.197Z,8.97
2018-03-22T07:29:56.655Z,9.70
2018-03-22T07:32:24.237Z,9.33
2018-03-22T07:34:51.691Z,9.47
2018-03-22T07:37:19.142Z,9.30
2018-03-22T07:39:46.621Z,10.23
2018-03-22T07:42:14.086Z,9.10
2018-03-22T07:44:41.591Z,8.63
2018-03-22T07:47:09.046Z,9.80
2018-03-22T07:49:36.524Z,10.10
2018-03-22T07:52:03.998Z,10.93
2018-03-22T07:54:31.450Z,11.07
2018-03-22T07:56:59.170Z,9.80
2018-03-22T07:59:26.625Z,10.97
2018-03-22T08:01:54.093Z,10.53
2018-03-22T08:04:21.566Z,11.03
2018-03-22T08:06:49.038Z,10.40
2018-03-22T08:09:16.562Z,12.00
2018-03-22T08:11:44.014Z,12.90
2018-03-22T08:14:11.498Z,11.03
2018-03-22T08:16:38.982Z,12.00
2018-03-22T08:19:06.442Z,12.37
2018-03-22T08:21:34.278Z,12.53
2018-03-22T08:24:01.725Z,12.33
2018-03-22T08:26:29.209Z,12.17
2018-03-22T08:28:56.678Z,12.77
2018-03-22T08:31:24.125Z,12.93
2018-03-22T08:33:51.641Z,12.20
2018-03-22T08:36:19.102Z,13.83
2018-03-22T08:38:47.131Z,13.73
2018-03-22T08:41:14.675Z,13.70
2018-03-22T08:43:42.075Z,13.30
2018-03-22T08:46:09.798Z,13.80
2018-03-22T08:48:37.245Z,14.40
2018-03-22T08:51:04.705Z,14.10
2018-03-22T08:53:32.173Z,15.13
2018-03-22T08:55:59.621Z,14.37
2018-03-22T08:58:27.246Z,15.13
2018-03-22T09:00:54.694Z,14.30
2018-03-22T09:03:22.152Z,16.07
2018-03-22T09:05:49.622Z,14.80
2018-03-22T09:08:17.081Z,16.00
2018-03-22T09:10:44.573Z,17.13
2018-03-22T09:13:12.045Z,18.13
2018-03-22T09:15:39.541Z,23.67
2018-03-22T09:18:07.009Z,24.63
2018-03-22T09:20:34.467Z,20.07
2018-03-22T09:23:01.991Z,18.83
2018-03-22T09:25:29.442Z,16.53
2018-03-22T09:27:56.977Z,17.37
2018-03-22T09:30:24.753Z,12.60
2018-03-22T09:32:52.206Z,17.30
2018-03-22T09:35:19.801Z,16.40
2018-03-22T09:37:47.259Z,16.10
2018-03-22T09:40:14.717Z,14.47
2018-03-22T09:42:42.189Z,16.33
2018-03-22T09:45:09.641Z,15.60
2018-03-22T09:47:37.121Z,18.37
2018-03-22T09:50:04.610Z,15.57
2018-03-22T09:52:33.009Z,17.90
2018-03-22T09:55:00.481Z,16.17
2018-03-22T09:57:27.950Z,16.97
2018-03-22T09:59:55.617Z,18.57
2018-03-22T10:02:23.080Z,15.27
2018-03-22T10:04:50.538Z,17.20
2018-03-22T10:07:18.013Z,15.43
2018-03-22T10:09:45.462Z,17.80
2018-03-22T10:12:12.963Z,17.07
2018-03-22T10:14:40.425Z,15.77
2018-03-22T10:17:07.897Z,15.97
2018-03-22T10:19:35.377Z,17.30
2018-03-22T10:22:02.830Z,15.97
2018-03-22T10:24:30.305Z,16.10
2018-03-22T10:26:57.770Z,15.40
2018-03-22T10:29:25.240Z,15.37
2018-03-22T10:31:52.709Z,16.10
2018-03-22T10:34:20.174Z,16.40
2018-03-22T10:36:47.658Z,14.03
2018-03-22T10:39:15.102Z,15.60
2018-03-22T10:41:42.554Z,15.70
2018-03-22T10:44:10.029Z,15.10
2018-03-22T10:46:37.486Z,14.77
2018-03-22T10:49:05.209Z,16.50
2018-03-22T10:51:32.657Z,16.13
2018-03-22T10:54:00.107Z,14.27
2018-03-22T10:56:28.539Z,13.90
2018-03-22T10:58:55.986Z,15.30
2018-03-22T11:01:29.320Z,14.87
2018-03-22T11:03:56.773Z,13.40
2018-03-22T11:06:24.225Z,14.73
2018-03-22T11:08:51.713Z,14.10
2018-03-22T11:11:19.192Z,13.03
2018-03-22T11:13:47.046Z,15.13
2018-03-22T11:16:14.517Z,15.50
2018-03-22T11:18:41.965Z,13.47
2018-03-22T11:21:09.435Z,14.13
2018-03-22T11:23:36.891Z,13.00
2018-03-22T11:26:04.725Z,13.40
2018-03-22T11:28:32.196Z,13.30
2018-03-22T11:30:59.646Z,13.30
2018-03-22T11:33:27.118Z,12.13
2018-03-22T11:35:54.573Z,11.90
2018-03-22T11:38:22.225Z,11.47
2018-03-22T11:40:49.694Z,12.30
2018-03-22T11:43:17.148Z,12.33
2018-03-22T11:45:44.623Z,10.83
2018-03-22T11:48:12.097Z,10.23
2018-03-22T11:50:39.650Z,13.93
2018-03-22T11:53:07.121Z,11.27
2018-03-22T11:55:34.576Z,11.40
2018-03-22T11:58:02.056Z,10.97
2018-03-22T12:00:29.507Z,14.00
2018-03-22T12:02:57.202Z,11.03
2018-03-22T12:05:24.675Z,10.40
2018-03-22T12:07:52.139Z,11.40
2018-03-22T12:10:19.620Z,9.43
2018-03-22T12:12:47.062Z,8.60
2018-03-22T12:15:14.681Z,9.63
2018-03-22T12:17:42.174Z,10.60
2018-03-22T12:20:09.624Z,10.20
2018-03-22T12:22:37.110Z,8.57
2018-03-22T12:25:04.592Z,8.70
2018-03-22T12:27:32.366Z,9.63
2018-03-22T12:29:59.814Z,8.23
2018-03-22T12:32:27.259Z,9.07
2018-03-22T12:34:54.739Z,9.53
2018-03-22T12:37:22.190Z,9.33
2018-03-22T12:39:49.845Z,9.43
2018-03-22T12:42:17.313Z,9.13
2018-03-22T12:44:44.757Z,9.73
2018-03-22T12:47:12.258Z,11.23
2018-03-22T12:49:39.707Z,11.33
2018-03-22T12:52:07.400Z,10.20
2018-03-22T12:54:34.869Z,10.57
2018-03-22T12:57:02.315Z,11.20
2018-03-22T12:59:29.793Z,11.03
2018-03-22T13:01:57.237Z,10.40
2018-03-22T13:04:24.865Z,10.47
2018-03-22T13:06:52.309Z,9.90
2018-03-22T13:09:19.755Z,11.90
2018-03-22T13:11:47.225Z,11.33
2018-03-22T13:14:14.694Z,11.53
2018-03-22T13:16:42.314Z,12.10
2018-03-22T13:19:09.766Z,10.10
2018-03-22T13:21:37.221Z,9.07
2018-03-22T13:24:04.681Z,7.80
2018-03-22T13:26:32.126Z,9.03
2018-03-22T13:28:59.970Z,9.00
2018-03-22T13:31:27.416Z,9.47
2018-03-22T13:33:54.861Z,9.50
2018-03-22T13:36:22.335Z,11.10
2018-03-22T13:38:49.825Z,10.83
2018-03-22T13:41:17.334Z,10.27
2018-03-22T13:43:44.777Z,8.30
2018-03-22T13:46:12.228Z,9.40
2018-03-22T13:48:39.693Z,9.40
2018-03-22T13:51:07.138Z,9.43
2018-03-22T13:53:34.617Z,11.23
2018-03-22T13:56:02.061Z,10.20
2018-03-22T13:58:29.519Z,9.17
2018-03-22T14:00:56.989Z,7.27
2018-03-22T14:03:24.430Z,9.00
2018-03-22T14:05:51.934Z,7.17
2018-03-22T14:08:19.373Z,8.23
2018-03-22T14:10:46.817Z,8.70
2018-03-22T14:13:14.309Z,8.60
2018-03-22T14:15:41.754Z,9.30
2018-03-22T14:18:09.581Z,8.70
2018-03-22T14:20:37.025Z,8.67
2018-03-22T14:23:04.462Z,8.17
2018-03-22T14:25:31.958Z,8.07
2018-03-22T14:27:59.396Z,7.80
2018-03-22T14:30:26.879Z,8.00
2018-03-22T14:32:54.323Z,7.10
2018-03-22T14:35:21.775Z,7.97
2018-03-22T14:37:49.274Z,8.43
2018-03-22T14:40:16.722Z,8.63
2018-03-22T14:42:44.199Z,8.43
2018-03-22T14:45:11.638Z,8.53
2018-03-22T14:47:39.110Z,9.20
2018-03-22T14:50:06.582Z,8.27
2018-03-22T14:52:34.021Z,8.57
2018-03-22T14:55:01.666Z,8.80
2018-03-22T14:57:29.116Z,8.37
2018-03-22T14:59:56.598Z,9.07
2018-03-22T15:02:24.085Z,9.30
2018-03-22T15:04:51.549Z,8.50
2018-03-22T15:07:19.024Z,9.13
2018-03-22T15:09:46.484Z,7.50
2018-03-22T15:12:13.960Z,8.10
2018-03-22T15:14:41.417Z,7.47
2018-03-22T15:17:08.868Z,8.50
2018-03-22T15:19:36.353Z,7.50
2018-03-22T15:22:03.801Z,7.87
2018-03-22T15:24:31.240Z,8.47
2018-03-22T15:26:58.712Z,7.00
2018-03-22T15:29:26.161Z,7.77
2018-03-22T15:31:53.986Z,8.37
2018-03-22T15:34:21.430Z,8.97
2018-03-22T15:36:48.888Z,9.10
2018-03-22T15:39:16.369Z,8.57
2018-03-22T15:41:43.818Z,9.20
2018-03-22T15:44:11.307Z,7.97
2018-03-22T15:46:38.760Z,8.73
2018-03-22T15:49:06.197Z,8.13
2018-03-22T15:51:33.663Z,7.10
2018-03-22T15:54:01.101Z,8.30
2018-03-22T15:56:28.745Z,8.23
2018-03-22T15:58:56.417Z,8.43
2018-03-22T16:01:23.873Z,8.03
2018-03-22T16:03:51.342Z,8.57
2018-03-22T16:06:18.803Z,7.90
2018-03-22T16:08:46.414Z,7.30
2018-03-22T16:11:13.874Z,7.17
2018-03-22T16:13:41.321Z,6.80
2018-03-22T16:16:08.810Z,7.83
2018-03-22T16:18:36.254Z,8.07
2018-03-22T16:21:03.726Z,7.50
2018-03-22T16:23:31.162Z,7.30
2018-03-22T16:25:58.613Z,7.20
2018-03-22T16:28:26.079Z,6.73
2018-03-22T16:30:53.541Z,7.10
2018-03-22T16:33:21.035Z,6.57
2018-03-22T16:35:48.482Z,5.53
2018-03-22T16:38:15.934Z,6.77
2018-03-22T16:40:43.439Z,6.93
2018-03-22T16:43:11.233Z,7.00
2018-03-22T16:45:38.883Z,6.97
2018-03-22T16:48:06.321Z,6.70
2018-03-22T16:50:33.777Z,5.60
2018-03-22T16:53:01.257Z,5.40
2018-03-22T16:55:28.701Z,5.60
2018-03-22T16:57:56.153Z,6.87
2018-03-22T17:00:23.631Z,5.60
2018-03-22T17:02:51.077Z,6.07
2018-03-22T17:05:18.813Z,6.23
2018-03-22T17:07:46.275Z,5.73
2018-03-22T17:10:13.728Z,4.63
2018-03-22T17:12:41.210Z,5.40
2018-03-22T17:15:08.649Z,6.43
2018-03-22T17:17:36.381Z,5.50
2018-03-22T17:20:03.827Z,4.97
2018-03-22T17:22:31.270Z,5.43
2018-03-22T17:24:58.746Z,4.77
2018-03-22T17:27:26.188Z,6.23
2018-03-22T17:29:53.930Z,7.20
2018-03-22T17:32:21.369Z,6.17
2018-03-22T17:34:49.055Z,5.90
2018-03-22T17:37:16.521Z,7.00
2018-03-22T17:39:43.966Z,7.20
2018-03-22T17:42:11.455Z,7.90
2018-03-22T17:44:38.910Z,6.87
2018-03-22T17:47:07.217Z,8.10
2018-03-22T17:49:34.694Z,7.07
2018-03-22T17:52:02.150Z,8.17
2018-03-22T17:54:29.970Z,7.00
2018-03-22T17:56:57.414Z,7.77
2018-03-22T17:59:24.898Z,6.90
2018-03-22T18:01:52.386Z,7.73
2018-03-22T18:04:19.840Z,11.07
2018-03-22T18:06:47.326Z,8.40
2018-03-22T18:09:14.801Z,6.20
2018-03-22T18:11:42.276Z,6.43
2018-03-22T18:14:09.745Z,6.30
2018-03-22T18:16:37.229Z,6.30
2018-03-22T18:19:04.711Z,6.33
2018-03-22T18:21:32.165Z,6.27
2018-03-22T18:23:59.610Z,6.00
2018-03-22T18:26:27.095Z,6.67
2018-03-22T18:28:54.575Z,6.70
2018-03-22T18:31:22.274Z,6.90
2018-03-22T18:33:49.714Z,7.67
2018-03-22T18:36:17.167Z,7.53
2018-03-22T18:38:44.669Z,7.27
2018-03-22T18:41:12.134Z,7.47
2018-03-22T18:43:39.618Z,8.17
2018-03-22T18:46:07.081Z,9.43
2018-03-22T18:48:34.522Z,8.97
2018-03-22T18:51:02.014Z,8.60
2018-03-22T18:53:29.454Z,8.07
2018-03-22T18:55:57.114Z,8.10
2018-03-22T18:58:24.558Z,7.97
2018-03-22T19:00:52.003Z,7.80
2018-03-22T19:03:19.490Z,7.33
2018-03-22T19:05:46.942Z,7.90
2018-03-22T19:08:14.981Z,7.60
2018-03-22T19:10:42.453Z,7.70
2018-03-22T19:13:09.893Z,6.00
2018-03-22T19:15:37.362Z,6.80
2018-03-22T19:18:04.817Z,8.27
2018-03-22T19:20:32.429Z,9.73
2018-03-22T19:22:59.903Z,7.87
2018-03-22T19:25:27.353Z,7.50
2018-03-22T19:27:54.950Z,9.73
2018-03-22T19:30:22.407Z,7.67
2018-03-22T19:32:50.002Z,6.60
2018-03-22T19:35:17.513Z,7.00
2018-03-22T19:37:45.887Z,5.93
2018-03-22T19:40:13.358Z,6.33
2018-03-22T19:42:40.828Z,5.50
2018-03-22T19:45:08.547Z,6.63
2018-03-22T19:47:35.981Z,6.23
2018-03-22T19:50:04.246Z,6.83
2018-03-22T19:52:31.726Z,6.67
2018-03-22T19:54:59.170Z,6.90
2018-03-22T19:57:26.877Z,7.20
2018-03-22T19:59:54.318Z,7.30
2018-03-22T20:02:21.764Z,7.20
2018-03-22T20:04:49.241Z,6.30
2018-03-22T20:07:18.566Z,5.83
2018-03-22T20:09:46.345Z,6.27
2018-03-22T20:12:13.792Z,6.07
2018-03-22T20:14:41.266Z,5.77
2018-03-22T20:17:08.796Z,7.10
2018-03-22T20:19:36.242Z,6.30
2018-03-22T20:22:03.730Z,5.33
2018-03-22T20:24:31.468Z,6.43
2018-03-22T20:26:58.945Z,5.20
2018-03-22T20:29:26.581Z,6.80
2018-03-22T20:31:54.020Z,6.50
2018-03-22T20:34:22.462Z,7.60
2018-03-22T20:36:49.910Z,5.87
2018-03-22T20:39:17.362Z,7.20
2018-03-22T20:41:44.875Z,6.00
2018-03-22T20:44:17.550Z,6.43
2018-03-22T20:46:47.873Z,6.97
2018-03-22T20:49:15.340Z,7.70
2018-03-22T20:51:42.792Z,6.20
2018-03-22T20:54:10.263Z,7.07
2018-03-22T20:56:37.725Z,6.63
2018-03-22T20:59:05.204Z,7.17
2018-03-22T21:01:32.664Z,6.93
2018-03-22T21:04:00.130Z,7.50
2018-03-22T21:06:27.606Z,7.37
2018-03-22T21:08:55.090Z,11.53
2018-03-22T21:11:22.575Z,11.97
2018-03-22T21:13:50.034Z,7.97
2018-03-22T21:16:17.499Z,9.00
2018-03-22T21:18:44.957Z,7.97
2018-03-22T21:21:12.406Z,7.93
2018-03-22T21:23:39.933Z,8.53
2018-03-22T21:26:07.379Z,8.10
2018-03-22T21:28:34.839Z,9.73
2018-03-22T21:31:02.296Z,7.20
2018-03-22T21:33:29.765Z,7.97
2018-03-22T21:35:57.387Z,9.33
2018-03-22T21:38:24.864Z,9.17
2018-03-22T21:40:52.318Z,8.53
2018-03-22T21:43:19.778Z,7.40
2018-03-22T21:45:47.218Z,8.20
2018-03-22T21:48:14.702Z,8.33
2018-03-22T21:50:48.081Z,8.57
2018-03-22T21:53:15.569Z,10.17
2018-03-22T21:55:43.042Z,8.00
2018-03-22T21:58:10.498Z,8.83
2018-03-22T22:00:37.970Z,10.10
2018-03-22T22:03:05.475Z,9.37
2018-03-22T22:05:33.057Z,9.37
2018-03-22T22:08:00.501Z,9.00
2018-03-22T22:10:27.979Z,10.43
2018-03-22T22:12:55.453Z,9.57
2018-03-22T22:15:22.946Z,8.90
2018-03-22T22:17:50.657Z,9.07
2018-03-22T22:20:18.100Z,9.60
2018-03-22T22:22:45.557Z,9.60
2018-03-22T22:25:13.032Z,9.60
2018-03-22T22:27:40.493Z,11.43
2018-03-22T22:30:07.978Z,12.47
2018-03-22T22:32:35.430Z,12.77
2018-03-22T22:35:02.893Z,11.93
2018-03-22T22:37:30.378Z,11.77
2018-03-22T22:39:57.842Z,11.57
2018-03-22T22:42:25.409Z,12.30
2018-03-22T22:44:52.865Z,11.60
2018-03-22T22:47:20.338Z,12.10
2018-03-22T22:49:47.841Z,12.40
2018-03-22T22:52:15.297Z,13.00
2018-03-22T22:54:43.145Z,14.10
2018-03-22T22:57:10.608Z,12.17
2018-03-22T22:59:38.061Z,12.63
2018-03-22T23:02:05.552Z,13.50
2018-03-22T23:04:33.001Z,13.50
2018-03-22T23:07:00.489Z,12.63
2018-03-22T23:09:27.961Z,12.07
2018-03-22T23:11:55.415Z,12.87
2018-03-22T23:14:22.885Z,12.57
2018-03-22T23:16:50.349Z,13.60
2018-03-22T23:19:17.797Z,13.37
2018-03-22T23:21:45.285Z,14.63
2018-03-22T23:24:12.783Z,13.67
2018-03-22T23:26:40.229Z,13.30
2018-03-22T23:29:07.730Z,14.13
2018-03-22T23:31:35.193Z,13.00
2018-03-22T23:34:02.641Z,13.20
2018-03-22T23:36:30.136Z,13.53
2018-03-22T23:38:57.602Z,12.30
2018-03-22T23:41:25.084Z,14.87
2018-03-22T23:43:52.591Z,13.30
2018-03-22T23:46:20.037Z,14.07
2018-03-22T23:48:47.485Z,12.80
2018-03-22T23:51:14.961Z,13.27
2018-03-22T23:53:42.419Z,14.80
2018-03-22T23:56:09.880Z,14.87
2018-03-22T23:58:37.350Z,15.83
